Time;durP1;ratioP1;P1;durP2;ratioP2;P2;SDS_P1;SDS_P2;PMS_P1;PMS_P2;Temp;Humidity;BMP_temperature;BMP_pressure;BME280_temperature;BME280_humidity;BME280_pressure;Samples;Min_cycle;Max_cycle;Signal;HPM_P1;HPM_P2
2022/05/23 00:02:20;;;;;;;10.75;4.60;;;14.60;99.90;;;;;;5094256;28;20020;-69
2022/05/23 00:04:47;;;;;;;9.75;4.68;;;14.60;99.90;;;;;;5092794;28;20048;-69
2022/05/23 00:07:36;;;;;;;11.20;4.78;;;14.60;99.90;;;;;;5094205;28;20103;-69
2022/05/23 00:10:04;;;;;;;9.93;4.90;;;14.60;99.90;;;;;;5094099;28;20048;-70
2022/05/23 00:12:30;;;;;;;9.02;4.88;;;14.50;99.90;;;;;;5094176;28;20039;-69
2022/05/23 00:14:55;;;;;;;9.95;5.25;;;14.60;99.90;;;;;;5093990;28;20555;-69
2022/05/23 00:17:21;;;;;;;9.73;4.80;;;14.50;99.90;;;;;;5093988;28;20032;-69
2022/05/23 00:19:48;;;;;;;8.63;4.82;;;14.50;99.90;;;;;;5092812;28;20355;-69
2022/05/23 00:22:14;;;;;;;7.70;4.55;;;14.60;99.90;;;;;;5092603;28;20032;-69
2022/05/23 00:24:41;;;;;;;7.72;5.00;;;14.50;99.90;;;;;;5092696;28;20060;-69
2022/05/23 00:27:10;;;;;;;9.80;5.20;;;14.50;99.90;;;;;;5093865;28;20062;-70
2022/05/23 00:29:36;;;;;;;8.75;5.45;;;14.60;99.90;;;;;;5092741;28;20500;-70
2022/05/23 00:35:18;;;;;;;8.40;5.18;;;14.60;99.90;;;;;;5092515;28;20028;-69
2022/05/23 00:37:32;;;;;;;8.38;5.45;;;14.60;99.90;;;;;;5093578;28;20490;-69
2022/05/23 00:39:58;;;;;;;13.80;5.70;;;14.60;99.90;;;;;;5092839;28;20031;-69
2022/05/23 00:45:15;;;;;;;9.82;5.53;;;14.60;99.90;;;;;;5093347;28;20024;-70
2022/05/23 00:47:42;;;;;;;9.68;5.05;;;14.60;99.90;;;;;;5092405;28;20029;-69
2022/05/23 00:50:09;;;;;;;9.38;5.25;;;14.70;99.90;;;;;;5092159;28;20024;-69
2022/05/23 00:52:40;;;;;;;14.02;5.43;;;14.70;99.90;;;;;;5093506;28;20036;-69
2022/05/23 00:55:12;;;;;;;15.32;5.50;;;14.70;99.90;;;;;;5093622;28;20515;-69
2022/05/23 00:57:42;;;;;;;12.48;5.38;;;14.70;99.90;;;;;;5093532;28;20024;-69
2022/05/23 01:00:09;;;;;;;9.38;5.40;;;14.70;99.90;;;;;;5092055;28;20039;-69
2022/05/23 01:02:36;;;;;;;14.70;5.60;;;14.70;99.90;;;;;;5093339;28;20371;-69
2022/05/23 01:05:04;;;;;;;10.18;5.13;;;14.70;99.90;;;;;;5093129;28;20164;-69
2022/05/23 01:07:29;;;;;;;11.80;5.25;;;14.70;99.90;;;;;;5093361;28;20052;-69
2022/05/23 01:09:55;;;;;;;8.25;5.20;;;14.70;99.90;;;;;;5093175;28;20090;-69
2022/05/23 01:12:21;;;;;;;8.40;4.90;;;14.70;99.90;;;;;;5092001;28;20016;-69
2022/05/23 01:14:54;;;;;;;8.73;5.05;;;14.70;99.90;;;;;;5091968;28;20073;-69
2022/05/23 01:17:22;;;;;;;12.02;4.97;;;14.70;99.90;;;;;;5093249;28;20028;-69
2022/05/23 01:19:48;;;;;;;8.43;5.15;;;14.70;99.90;;;;;;5093247;28;20116;-69
2022/05/23 01:22:40;;;;;;;9.82;4.68;;;14.70;99.90;;;;;;5093183;28;20477;-69
2022/05/23 01:27:46;;;;;;;9.30;5.05;;;14.70;99.90;;;;;;5111188;27;20384;-69
2022/05/23 01:30:13;;;;;;;9.85;5.60;;;14.80;99.90;;;;;;5111148;28;20110;-69
2022/05/23 01:32:38;;;;;;;11.57;5.82;;;14.70;99.90;;;;;;5111019;28;20026;-69
2022/05/23 01:35:06;;;;;;;7.28;5.22;;;14.70;99.90;;;;;;5111040;28;20114;-69
2022/05/23 01:37:32;;;;;;;10.15;5.10;;;14.70;99.90;;;;;;5110941;28;20065;-69
2022/05/23 01:39:57;;;;;;;9.90;5.03;;;14.70;99.90;;;;;;5110936;28;20028;-70
2022/05/23 01:42:23;;;;;;;12.68;5.95;;;14.70;99.90;;;;;;5109697;28;20453;-69
2022/05/23 01:44:48;;;;;;;8.50;5.10;;;14.70;99.90;;;;;;5109535;28;20054;-69
2022/05/23 01:47:18;;;;;;;13.43;5.97;;;14.70;99.90;;;;;;5110752;28;20034;-69
2022/05/23 01:49:43;;;;;;;9.85;5.30;;;14.60;99.90;;;;;;5109595;28;20027;-69
2022/05/23 01:52:10;;;;;;;11.20;5.30;;;14.60;99.90;;;;;;5110626;28;20024;-69
2022/05/23 01:54:37;;;;;;;9.00;5.20;;;14.60;99.90;;;;;;5110675;28;20024;-70
2022/05/23 01:57:03;;;;;;;11.88;6.25;;;14.60;99.90;;;;;;5109512;28;20028;-70
2022/05/23 02:02:15;;;;;;;10.10;6.18;;;14.60;99.90;;;;;;5109424;28;20232;-69
2022/05/23 02:04:42;;;;;;;9.23;6.40;;;14.60;99.90;;;;;;5109193;28;20031;-69
2022/05/23 02:07:08;;;;;;;10.45;5.78;;;14.60;99.90;;;;;;5110373;28;20020;-69
2022/05/23 02:09:34;;;;;;;12.70;6.28;;;14.60;99.90;;;;;;5109228;28;20426;-69
2022/05/23 02:12:00;;;;;;;10.32;6.15;;;14.60;99.90;;;;;;5109205;28;20444;-69
2022/05/23 02:14:26;;;;;;;9.13;5.88;;;14.60;99.90;;;;;;5091985;28;20391;-69
2022/05/23 02:16:52;;;;;;;11.40;6.13;;;14.60;99.90;;;;;;5110220;28;20031;-69
2022/05/23 02:19:17;;;;;;;11.73;6.45;;;14.60;99.90;;;;;;5091882;28;20035;-69
2022/05/23 02:21:43;;;;;;;10.75;6.38;;;14.50;99.90;;;;;;5109004;28;20435;-69
2022/05/23 02:24:08;;;;;;;10.38;6.15;;;14.60;99.90;;;;;;5110023;28;20412;-69
2022/05/23 02:26:35;;;;;;;9.48;5.80;;;14.60;99.90;;;;;;5109730;28;20105;-69
2022/05/23 02:29:02;;;;;;;8.30;6.22;;;14.60;99.90;;;;;;5110093;28;20110;-69
2022/05/23 02:31:28;;;;;;;10.73;6.30;;;14.50;99.90;;;;;;5109936;28;20059;-69
2022/05/23 02:33:54;;;;;;;9.95;6.03;;;14.50;99.90;;;;;;5108645;28;20069;-69
2022/05/23 02:36:19;;;;;;;9.90;6.35;;;14.50;99.90;;;;;;5109815;28;20024;-69
2022/05/23 02:38:45;;;;;;;10.65;6.20;;;14.40;99.90;;;;;;5098113;28;20510;-69
2022/05/23 02:41:11;;;;;;;13.30;6.97;;;14.40;99.90;;;;;;5096197;28;20020;-69
2022/05/23 02:43:36;;;;;;;10.10;6.20;;;14.40;99.90;;;;;;5094786;28;20028;-69
2022/05/23 02:46:02;;;;;;;10.45;6.20;;;14.40;99.90;;;;;;5077914;28;20119;-69
2022/05/23 02:48:27;;;;;;;13.02;6.95;;;14.40;99.90;;;;;;5096040;28;20032;-69
2022/05/23 02:50:53;;;;;;;12.02;7.03;;;14.40;99.90;;;;;;5094814;28;20099;-69
2022/05/23 02:53:18;;;;;;;12.90;6.88;;;14.40;99.90;;;;;;5077806;28;20117;-69
2022/05/23 02:55:44;;;;;;;10.20;6.35;;;14.40;99.90;;;;;;5095909;28;20028;-69
2022/05/23 02:58:10;;;;;;;13.73;6.68;;;14.40;99.90;;;;;;5095830;28;20139;-69
2022/05/23 03:00:36;;;;;;;14.48;6.80;;;14.40;99.90;;;;;;5094745;28;20028;-69
2022/05/23 03:03:03;;;;;;;10.50;6.60;;;14.40;99.90;;;;;;5095843;28;20071;-69
2022/05/23 03:05:31;;;;;;;13.52;6.85;;;14.40;99.90;;;;;;5094381;28;20028;-69
2022/05/23 03:07:57;;;;;;;10.95;6.68;;;14.40;99.90;;;;;;5094416;28;20024;-69
2022/05/23 03:10:23;;;;;;;9.75;6.35;;;14.40;99.90;;;;;;5095526;28;20024;-69
2022/05/23 03:12:49;;;;;;;10.20;6.18;;;14.40;99.90;;;;;;5095618;28;20129;-69
2022/05/23 03:15:15;;;;;;;12.13;7.07;;;14.40;99.90;;;;;;5095595;28;20059;-69
2022/05/23 03:17:40;;;;;;;13.02;6.97;;;14.40;99.90;;;;;;5094366;28;20027;-69
2022/05/23 03:20:07;;;;;;;13.75;6.65;;;14.40;99.90;;;;;;5094382;28;20486;-70
2022/05/23 03:28:04;;;;;;;10.88;6.63;;;14.40;99.90;;;;;;5095085;28;20535;-69
2022/05/23 03:30:31;;;;;;;12.98;7.10;;;14.40;99.90;;;;;;5095173;28;20020;-69
2022/05/23 03:32:57;;;;;;;12.77;6.43;;;14.50;99.90;;;;;;5095131;28;20021;-69
2022/05/23 03:35:26;;;;;;;12.32;7.25;;;14.50;99.90;;;;;;5095167;28;20016;-69
2022/05/23 03:37:51;;;;;;;14.27;7.28;;;14.50;99.90;;;;;;5095055;28;20031;-69
2022/05/23 03:40:17;;;;;;;16.27;7.63;;;14.50;99.90;;;;;;5076967;28;20412;-69
2022/05/23 03:42:43;;;;;;;9.82;6.90;;;14.50;99.90;;;;;;5093755;28;20032;-69
2022/05/23 03:45:09;;;;;;;12.80;7.07;;;14.60;99.90;;;;;;5095032;28;20052;-69
2022/05/23 03:47:34;;;;;;;9.30;6.90;;;14.60;99.90;;;;;;5094850;28;20501;-69
2022/05/23 03:50:00;;;;;;;11.38;6.97;;;14.60;99.90;;;;;;5092661;28;20021;-69
2022/05/23 03:52:26;;;;;;;11.90;7.40;;;14.70;99.90;;;;;;5094747;28;20451;-69
2022/05/23 03:54:51;;;;;;;13.65;7.35;;;14.70;99.90;;;;;;5094738;28;20024;-69
2022/05/23 03:57:17;;;;;;;9.80;7.00;;;14.70;99.90;;;;;;5094636;28;20032;-69
2022/05/23 03:59:45;;;;;;;11.13;7.07;;;14.80;99.90;;;;;;5093442;28;20024;-69
2022/05/23 04:02:11;;;;;;;13.45;7.22;;;14.70;99.90;;;;;;5094673;28;20028;-69
2022/05/23 04:04:37;;;;;;;9.55;6.90;;;14.80;99.90;;;;;;5094626;28;20020;-69
2022/05/23 04:07:05;;;;;;;12.23;7.18;;;14.80;99.90;;;;;;5093334;28;20043;-69
2022/05/23 04:09:31;;;;;;;12.60;6.47;;;14.80;99.90;;;;;;5094560;28;20109;-69
2022/05/23 04:11:58;;;;;;;12.27;6.53;;;14.80;99.90;;;;;;5094390;28;20027;-69
2022/05/23 04:14:25;;;;;;;12.65;7.30;;;14.90;99.90;;;;;;5094408;28;20028;-69
2022/05/23 04:16:51;;;;;;;13.48;6.68;;;14.90;99.90;;;;;;5093174;28;20035;-69
2022/05/23 04:19:17;;;;;;;9.40;6.60;;;15.00;99.90;;;;;;5093122;28;20381;-69
2022/05/23 04:21:44;;;;;;;10.57;7.28;;;15.00;99.90;;;;;;5094347;28;20394;-69
2022/05/23 04:24:11;;;;;;;12.13;7.60;;;15.10;99.90;;;;;;5094225;28;20052;-69
2022/05/23 04:26:37;;;;;;;14.07;7.65;;;15.20;99.90;;;;;;5092540;28;20135;-69
2022/05/23 04:29:04;;;;;;;13.07;7.53;;;15.20;99.90;;;;;;5094134;28;20057;-69
2022/05/23 04:31:30;;;;;;;8.93;7.18;;;15.20;99.90;;;;;;5094026;28;20020;-69
2022/05/23 04:36:42;;;;;;;12.45;7.38;;;15.30;99.90;;;;;;5092817;28;20032;-69
2022/05/23 04:39:08;;;;;;;18.60;7.30;;;15.30;99.90;;;;;;5093957;28;20103;-69
2022/05/23 04:41:34;;;;;;;13.45;7.63;;;15.30;99.90;;;;;;5093928;28;20431;-69
2022/05/23 04:44:00;;;;;;;15.93;7.22;;;15.30;99.90;;;;;;5093888;28;20024;-69
2022/05/23 04:46:27;;;;;;;13.57;7.35;;;15.30;99.90;;;;;;5093714;28;20061;-69
2022/05/23 04:51:39;;;;;;;10.40;7.35;;;15.40;99.90;;;;;;5093588;28;20020;-69
2022/05/23 04:54:05;;;;;;;12.70;7.13;;;15.30;99.90;;;;;;5093618;28;20020;-69
2022/05/23 04:56:31;;;;;;;9.77;6.95;;;15.30;99.90;;;;;;5093621;28;20198;-69
2022/05/23 04:58:57;;;;;;;11.90;7.07;;;15.30;99.90;;;;;;5092436;28;20119;-69
2022/05/23 05:01:23;;;;;;;10.88;7.38;;;15.30;99.90;;;;;;5092119;28;20034;-69
2022/05/23 05:03:49;;;;;;;9.48;7.13;;;15.30;99.90;;;;;;5093544;28;20024;-69
2022/05/23 05:06:15;;;;;;;10.75;7.07;;;15.30;99.90;;;;;;5093426;28;20553;-69
2022/05/23 05:08:41;;;;;;;11.50;6.80;;;15.30;99.90;;;;;;5093563;28;20103;-69
2022/05/23 05:11:07;;;;;;;12.05;6.70;;;15.30;99.90;;;;;;5092169;28;20024;-69
2022/05/23 05:13:35;;;;;;;11.60;7.45;;;15.40;99.90;;;;;;5092245;28;20052;-69
2022/05/23 05:16:02;;;;;;;15.77;7.13;;;15.40;99.90;;;;;;5093317;28;20363;-69
2022/05/23 05:18:29;;;;;;;15.18;7.72;;;15.50;99.90;;;;;;5092083;28;20016;-69
2022/05/23 05:20:54;;;;;;;11.40;7.13;;;15.60;99.90;;;;;;5092030;28;20538;-69
2022/05/23 05:23:20;;;;;;;10.98;6.95;;;15.60;99.90;;;;;;5093250;28;20020;-69
2022/05/23 05:25:46;;;;;;;11.05;6.97;;;15.70;99.90;;;;;;5092302;28;20093;-69
2022/05/23 05:28:12;;;;;;;9.35;6.72;;;15.80;99.90;;;;;;5093232;28;20103;-70
2022/05/23 05:30:44;;;;;;;10.85;6.15;;;15.80;99.90;;;;;;5092579;28;20035;-70
2022/05/23 05:33:14;;;;;;;12.13;7.47;;;15.90;99.90;;;;;;5091012;28;20020;-69
2022/05/23 05:35:52;;;;;;;9.07;7.00;;;16.00;99.90;;;;;;5092474;28;20027;-69
2022/05/23 05:38:24;;;;;;;12.50;6.97;;;16.10;99.90;;;;;;5092014;28;20098;-69
2022/05/23 05:40:55;;;;;;;13.68;7.03;;;16.20;99.90;;;;;;5092695;28;20020;-69
2022/05/23 05:43:27;;;;;;;11.80;7.13;;;16.20;99.90;;;;;;5093092;28;20016;-69
2022/05/23 05:46:10;;;;;;;12.85;6.85;;;16.40;99.90;;;;;;5092704;28;20059;-69
2022/05/23 05:48:40;;;;;;;15.55;7.45;;;16.40;99.90;;;;;;5091925;28;20044;-69
2022/05/23 05:51:07;;;;;;;13.82;6.78;;;16.50;99.90;;;;;;5091145;28;20470;-69
2022/05/23 05:53:33;;;;;;;10.23;6.82;;;16.70;99.90;;;;;;5092497;28;20382;-70
2022/05/23 05:56:01;;;;;;;11.65;6.70;;;16.80;99.90;;;;;;5091527;28;20020;-69
2022/05/23 05:58:28;;;;;;;10.75;6.60;;;16.90;99.90;;;;;;5092861;28;20016;-70
2022/05/23 06:00:53;;;;;;;10.13;6.30;;;17.00;99.90;;;;;;5092775;28;20034;-69
2022/05/23 06:03:19;;;;;;;9.73;6.40;;;17.00;99.90;;;;;;5094065;28;20040;-69
2022/05/23 06:11:30;;;;;;;11.40;6.80;;;17.10;99.90;;;;;;5072328;28;20186;-69
2022/05/23 06:13:58;;;;;;;8.63;6.45;;;17.40;99.90;;;;;;5077371;28;20028;-70
2022/05/23 06:16:25;;;;;;;10.00;6.20;;;17.70;99.90;;;;;;5074901;28;20509;-70
2022/05/23 06:18:51;;;;;;;12.25;5.97;;;18.10;99.90;;;;;;5082801;28;20032;-70
2022/05/23 06:21:17;;;;;;;9.95;5.90;;;18.40;99.90;;;;;;5078451;28;20107;-70
2022/05/23 06:23:46;;;;;;;14.10;6.70;;;18.70;99.90;;;;;;5095700;28;20066;-69
2022/05/23 06:26:13;;;;;;;8.52;5.82;;;19.00;99.90;;;;;;5089542;28;20064;-70
2022/05/23 06:28:38;;;;;;;11.52;6.25;;;19.30;99.90;;;;;;5081149;28;20082;-70
2022/05/23 06:31:04;;;;;;;10.52;6.30;;;19.40;99.90;;;;;;5082085;28;20024;-70
2022/05/23 06:33:30;;;;;;;9.52;6.05;;;19.90;99.90;;;;;;5100218;28;20461;-70
2022/05/23 06:35:56;;;;;;;9.43;5.60;;;20.50;99.90;;;;;;5097360;28;21141;-69
2022/05/23 06:38:22;;;;;;;9.65;5.05;;;21.40;99.90;;;;;;5103719;28;20058;-69
2022/05/23 06:40:50;;;;;;;9.93;5.00;;;23.00;99.90;;;;;;5097740;28;20043;-70
2022/05/23 06:43:16;;;;;;;7.25;5.30;;;23.70;99.90;;;;;;5096157;28;20028;-70
2022/05/23 06:45:42;;;;;;;7.85;5.00;;;24.10;99.90;;;;;;5094075;28;20027;-70
2022/05/23 06:48:08;;;;;;;8.02;4.95;;;25.00;98.70;;;;;;5094562;28;20082;-70
2022/05/23 06:50:34;;;;;;;10.05;4.82;;;25.50;95.50;;;;;;5089635;28;20012;-71
2022/05/23 06:52:59;;;;;;;7.95;4.47;;;25.90;94.40;;;;;;5095897;28;20103;-70
2022/05/23 06:55:25;;;;;;;8.52;4.28;;;26.20;93.00;;;;;;5085973;28;20021;-70
2022/05/23 06:57:50;;;;;;;8.88;4.78;;;26.60;90.00;;;;;;5083197;28;20458;-70
2022/05/23 07:00:17;;;;;;;8.93;4.85;;;26.50;90.50;;;;;;5089511;28;20115;-70
2022/05/23 07:02:43;;;;;;;7.50;4.50;;;25.50;90.00;;;;;;5091563;28;20124;-70
2022/05/23 07:13:27;;;;;;;9.18;4.32;;;25.90;93.80;;;;;;5086120;28;20097;-70
2022/05/23 07:15:55;;;;;;;7.05;4.47;;;28.00;87.80;;;;;;5076150;28;20039;-71
2022/05/23 07:18:22;;;;;;;5.57;4.03;;;27.90;84.10;;;;;;5078426;28;20414;-70
2022/05/23 07:20:48;;;;;;;6.03;3.92;;;28.00;80.80;;;;;;5084605;28;20053;-70
2022/05/23 07:23:14;;;;;;;6.72;4.05;;;28.10;81.90;;;;;;5087895;28;20482;-70
2022/05/23 07:25:40;;;;;;;6.55;4.30;;;28.00;80.30;;;;;;5084385;28;20036;-70
2022/05/23 07:28:06;;;;;;;10.05;4.07;;;28.00;82.10;;;;;;5089287;28;20032;-70
2022/05/23 07:30:32;;;;;;;6.32;3.80;;;28.10;81.30;;;;;;5093741;28;20021;-70
2022/05/23 07:32:58;;;;;;;6.65;4.00;;;28.40;79.10;;;;;;5094773;28;20055;-70
2022/05/23 07:35:25;;;;;;;7.80;4.53;;;27.80;80.10;;;;;;5072413;28;20021;-70
2022/05/23 07:37:51;;;;;;;6.22;4.63;;;26.40;82.10;;;;;;5083788;28;20020;-70
2022/05/23 07:40:17;;;;;;;6.28;4.35;;;25.50;87.70;;;;;;5093523;28;20035;-70
2022/05/23 07:42:43;;;;;;;8.40;3.75;;;24.30;88.30;;;;;;5087216;28;20118;-70
2022/05/23 07:45:11;;;;;;;6.22;4.55;;;23.80;90.70;;;;;;5086560;28;20021;-70
2022/05/23 07:47:37;;;;;;;8.27;4.07;;;23.80;93.50;;;;;;5087272;28;20032;-70
2022/05/23 07:50:05;;;;;;;10.18;4.40;;;24.00;96.80;;;;;;5080124;28;20012;-71
2022/05/23 07:52:30;;;;;;;6.13;4.55;;;23.80;94.50;;;;;;5088792;28;20028;-70
2022/05/23 08:00:40;;;;;;;8.65;4.47;;;24.30;93.50;;;;;;5092017;28;20028;-70
2022/05/23 08:03:16;;;;;;;7.55;4.80;;;24.40;94.10;;;;;;5093834;28;20028;-70
2022/05/23 08:05:43;;;;;;;10.98;4.47;;;24.90;93.80;;;;;;5091397;28;20016;-70
2022/05/23 08:08:09;;;;;;;9.02;4.10;;;25.20;91.40;;;;;;5093508;28;20024;-70
2022/05/23 08:10:34;;;;;;;9.40;4.15;;;25.40;92.10;;;;;;5092257;28;20024;-70
2022/05/23 08:13:02;;;;;;;7.97;3.67;;;26.40;92.20;;;;;;5113391;28;20024;-70
2022/05/23 08:15:28;;;;;;;6.03;3.65;;;27.30;88.70;;;;;;5068590;28;20052;-70
2022/05/23 08:17:54;;;;;;;7.35;3.55;;;27.60;84.60;;;;;;5093319;28;20067;-70
2022/05/23 08:20:20;;;;;;;8.75;3.65;;;27.90;82.90;;;;;;5091604;28;20393;-70
2022/05/23 08:22:51;;;;;;;7.35;3.83;;;27.10;84.50;;;;;;5085950;28;20042;-70
2022/05/23 08:25:18;;;;;;;5.03;3.88;;;27.00;82.10;;;;;;5082289;28;20049;-70
2022/05/23 08:27:43;;;;;;;4.63;3.38;;;27.00;83.30;;;;;;5074161;28;20582;-70
2022/05/23 08:30:09;;;;;;;6.00;3.78;;;27.80;84.60;;;;;;5093382;28;20059;-70
2022/05/23 08:32:35;;;;;;;6.03;3.30;;;28.50;81.70;;;;;;5075215;28;20611;-71
2022/05/23 08:35:00;;;;;;;6.82;3.53;;;28.30;80.10;;;;;;5086678;28;20497;-70
2022/05/23 08:37:26;;;;;;;9.70;4.05;;;27.40;80.40;;;;;;5091061;28;20096;-70
2022/05/23 08:39:51;;;;;;;9.18;4.30;;;27.10;83.30;;;;;;5113218;28;20474;-70
2022/05/23 08:42:29;;;;;;;5.25;3.50;;;26.60;83.10;;;;;;5098264;28;20096;-70
2022/05/23 08:45:18;;;;;;;7.28;3.88;;;27.00;84.40;;;;;;5092539;28;20067;-70
2022/05/23 08:48:01;;;;;;;11.45;4.03;;;26.70;84.10;;;;;;5080115;28;20028;-70
2022/05/23 08:50:43;;;;;;;8.10;4.30;;;27.70;86.60;;;;;;5090402;28;20389;-70
2022/05/23 08:53:17;;;;;;;5.47;3.80;;;28.30;83.70;;;;;;5091253;28;20111;-70
2022/05/23 08:55:48;;;;;;;6.40;3.70;;;28.70;81.70;;;;;;5091271;28;20559;-70
2022/05/23 08:58:21;;;;;;;6.15;4.00;;;29.60;78.00;;;;;;5090646;28;20466;-70
2022/05/23 09:00:50;;;;;;;;;;;29.70;78.00;;;;;;5092387;28;20081;-71
2022/05/23 09:03:30;;;;;;;6.95;3.25;;;30.00;76.90;;;;;;5092953;28;19957;-70
2022/05/23 09:06:11;;;;;;;7.68;3.78;;;29.60;74.60;;;;;;5092853;28;20501;-70
2022/05/23 09:08:58;;;;;;;6.35;3.78;;;29.60;74.70;;;;;;5075392;28;20056;-70
2022/05/23 09:11:34;;;;;;;6.30;3.35;;;29.50;76.10;;;;;;5097024;28;20055;-70
2022/05/23 09:14:00;;;;;;;7.15;3.40;;;28.70;74.50;;;;;;5087822;28;20020;-70
2022/05/23 09:16:30;;;;;;;5.60;3.65;;;28.20;75.80;;;;;;5074920;28;20367;-70
2022/05/23 09:19:03;;;;;;;6.95;3.88;;;28.80;78.00;;;;;;5091383;28;20032;-70
2022/05/23 09:22:25;;;;;;;9.60;3.40;;;29.00;76.40;;;;;;5100329;28;20064;-71
2022/05/23 09:24:16;;;;;;;7.22;3.33;;;29.70;76.60;;;;;;5089823;28;20359;-70
2022/05/23 09:26:44;;;;;;;8.25;3.78;;;29.10;77.20;;;;;;5087626;28;20043;-70
2022/05/23 09:29:09;;;;;;;8.73;3.40;;;28.50;76.40;;;;;;5096046;28;20009;-70
2022/05/23 09:31:54;;;;;;;6.63;3.85;;;28.30;78.30;;;;;;5098945;28;20088;-70
2022/05/23 09:34:59;;;;;;;7.28;3.17;;;27.70;77.90;;;;;;5098010;28;20022;-70
2022/05/23 09:37:40;;;;;;;7.00;3.05;;;28.80;76.50;;;;;;5101888;28;20479;-71
2022/05/23 09:40:09;;;;;;;6.95;3.28;;;29.20;71.00;;;;;;5105953;28;20095;-70
2022/05/23 09:48:28;;;;;;;7.25;3.40;;;29.10;73.60;;;;;;5085426;28;20026;-70
2022/05/23 09:51:05;;;;;;;5.13;3.20;;;28.90;76.60;;;;;;5090799;28;20020;-71
2022/05/23 09:53:38;;;;;;;4.00;2.92;;;29.00;74.50;;;;;;5085107;28;20020;-71
2022/05/23 09:56:29;;;;;;;5.72;3.70;;;28.10;75.10;;;;;;5083626;28;20021;-70
2022/05/23 09:58:56;;;;;;;4.03;3.22;;;27.70;77.30;;;;;;5072497;28;20028;-70
2022/05/23 10:01:27;;;;;;;4.95;3.30;;;27.90;80.90;;;;;;5086803;28;20029;-70
2022/05/23 10:03:53;;;;;;;5.93;3.60;;;28.50;78.00;;;;;;5093774;28;20024;-70
2022/05/23 10:06:20;;;;;;;5.47;3.03;;;29.50;75.30;;;;;;5088937;28;20031;-71
2022/05/23 10:08:48;;;;;;;5.35;3.17;;;30.10;73.80;;;;;;5084992;28;20020;-71
2022/05/23 10:11:25;;;;;;;5.47;3.08;;;29.70;70.80;;;;;;5092623;28;20160;-71
2022/05/23 10:13:56;;;;;;;5.45;2.80;;;30.10;73.10;;;;;;5093829;28;20080;-70
2022/05/23 10:16:29;;;;;;;3.00;2.65;;;30.20;70.10;;;;;;5090382;28;20023;-70
2022/05/23 10:21:41;;;;;;;4.53;2.80;;;30.00;64.90;;;;;;5059329;28;20419;-71
2022/05/23 10:27:09;;;;;;;5.18;2.92;;;26.90;76.90;;;;;;5086739;27;20441;-71
2022/05/23 10:29:56;;;;;;;6.82;3.20;;;26.60;79.40;;;;;;5090376;28;20486;-70
2022/05/23 10:32:51;;;;;;;7.68;3.40;;;25.80;81.40;;;;;;5088493;28;20024;-70
2022/05/23 10:35:32;;;;;;;7.20;3.97;;;25.60;85.40;;;;;;5086190;28;20521;-71
2022/05/23 10:43:51;;;;;;;4.72;2.90;;;25.70;80.20;;;;;;5088294;28;20025;-70
2022/05/23 10:46:17;;;;;;;4.63;2.67;;;25.60;80.20;;;;;;5089091;28;20031;-71
2022/05/23 10:49:21;;;;;;;4.60;2.67;;;26.20;81.80;;;;;;5088525;28;20032;-71
2022/05/23 10:52:05;;;;;;;6.80;2.83;;;26.70;78.70;;;;;;5089237;28;20020;-71
2022/05/23 10:54:40;;;;;;;7.07;2.90;;;26.70;79.40;;;;;;5084167;28;20090;-71
2022/05/23 10:57:24;;;;;;;5.18;2.78;;;26.70;76.90;;;;;;5080741;28;20029;-71
2022/05/23 11:00:15;;;;;;;6.25;2.95;;;27.30;78.10;;;;;;5091457;28;20474;-72
2022/05/23 11:03:06;;;;;;;4.53;2.88;;;27.90;75.80;;;;;;5104415;28;20032;-71
2022/05/23 11:05:54;;;;;;;3.53;3.03;;;27.30;75.60;;;;;;5093700;28;20131;-71
2022/05/23 11:08:49;;;;;;;6.82;2.85;;;27.10;78.00;;;;;;5085164;28;20020;-69
2022/05/23 11:11:29;;;;;;;5.85;2.42;;;27.60;77.80;;;;;;5089636;28;20509;-71
2022/05/23 11:14:26;;;;;;;4.18;2.60;;;28.40;76.00;;;;;;5087200;28;20032;-71
2022/05/23 11:17:19;;;;;;;6.97;2.30;;;28.90;74.90;;;;;;5089026;28;20048;-71
2022/05/23 11:19:57;;;;;;;;;;;28.70;72.40;;;;;;5104534;28;20048;-71
2022/05/23 11:22:32;;;;;;;4.53;2.58;;;29.00;73.80;;;;;;5081761;28;20366;-72
2022/05/23 11:25:23;;;;;;;4.65;2.20;;;28.30;73.90;;;;;;5100576;28;20371;-71
2022/05/23 11:33:58;;;;;;;6.57;2.80;;;27.90;74.80;;;;;;5097480;28;20026;-69
2022/05/23 11:36:15;;;;;;;8.23;2.60;;;27.70;73.90;;;;;;5094635;28;20394;-71
2022/05/23 11:38:45;;;;;;;10.20;3.00;;;27.60;74.40;;;;;;5095715;28;20437;-70
2022/05/23 11:41:29;;;;;;;7.75;2.53;;;27.50;74.70;;;;;;5093822;28;20429;-70
2022/05/23 11:43:55;;;;;;;7.20;2.60;;;27.30;73.40;;;;;;5094000;28;20028;-70
2022/05/23 11:46:27;;;;;;;5.47;2.33;;;27.50;74.10;;;;;;5096999;28;20039;-70
2022/05/23 11:49:00;;;;;;;7.35;2.50;;;27.80;75.90;;;;;;5100979;28;20110;-70
2022/05/23 11:51:36;;;;;;;6.78;2.38;;;27.80;74.40;;;;;;5093737;28;20099;-70
2022/05/23 11:54:08;;;;;;;6.47;2.72;;;27.90;75.50;;;;;;5093472;28;20024;-70
2022/05/23 12:02:22;;;;;;;6.60;2.88;;;27.90;74.70;;;;;;5103814;27;20335;-71
2022/05/23 12:07:46;;;;;;;6.28;3.10;;;27.90;73.10;;;;;;5065691;28;20422;-71
2022/05/23 12:13:26;;;;;;;4.93;2.50;;;27.50;79.00;;;;;;5090202;28;20364;-70
2022/05/23 12:15:54;;;;;;;6.60;2.95;;;27.40;75.10;;;;;;5080345;28;20479;-70
2022/05/23 12:21:06;;;;;;;6.93;3.03;;;27.60;76.20;;;;;;5074627;27;20396;-71
2022/05/23 12:23:37;;;;;;;7.25;2.78;;;27.10;77.50;;;;;;5064728;28;20036;-71
2022/05/23 12:26:17;;;;;;;7.78;3.30;;;27.20;77.70;;;;;;5079871;28;20079;-71
2022/05/23 12:29:05;;;;;;;4.40;2.50;;;27.30;76.30;;;;;;5049517;28;20025;-71
2022/05/23 12:31:37;;;;;;;4.38;2.35;;;27.70;76.20;;;;;;5045850;28;20086;-71
2022/05/23 12:36:49;;;;;;;5.22;2.50;;;28.00;77.10;;;;;;5111035;27;20306;-70
2022/05/23 12:42:09;;;;;;;5.82;2.45;;;27.60;76.90;;;;;;5131003;27;20701;-70
2022/05/23 12:44:53;;;;;;;7.28;2.55;;;27.30;77.90;;;;;;5129595;28;20088;-71
2022/05/23 12:47:46;;;;;;;8.30;2.60;;;27.80;76.80;;;;;;5109600;28;20024;-70
2022/05/23 12:50:51;;;;;;;5.80;2.67;;;27.90;76.40;;;;;;5089247;28;20058;-70
2022/05/23 12:56:23;;;;;;;8.70;2.85;;;28.00;77.70;;;;;;5109164;27;20416;-71
2022/05/23 12:59:08;;;;;;;;;;;27.50;76.00;;;;;;5091083;28;20058;-71
2022/05/23 13:01:37;;;;;;;4.25;2.58;;;27.40;77.80;;;;;;5089753;28;19904;-71
2022/05/23 13:04:13;;;;;;;5.55;2.88;;;27.60;75.70;;;;;;5089306;28;20388;-71
2022/05/23 13:06:53;;;;;;;8.50;2.67;;;27.70;76.30;;;;;;5089151;28;20027;-71
2022/05/23 13:09:44;;;;;;;4.35;2.60;;;27.80;76.30;;;;;;5086854;28;20538;-71
2022/05/23 13:12:17;;;;;;;8.02;3.40;;;28.10;80.70;;;;;;5077418;28;20027;-71
2022/05/23 13:14:54;;;;;;;7.40;2.28;;;28.30;78.30;;;;;;5105552;28;20086;-71
2022/05/23 13:17:37;;;;;;;6.13;2.58;;;28.10;77.50;;;;;;5078459;28;20062;-71
2022/05/23 13:23:00;;;;;;;5.05;2.53;;;28.50;74.70;;;;;;5089513;28;20046;-72
2022/05/23 13:25:28;;;;;;;6.00;2.55;;;28.80;75.30;;;;;;5083393;28;20120;-70
2022/05/23 13:27:58;;;;;;;6.00;2.50;;;28.70;75.50;;;;;;5075715;28;20475;-71
2022/05/23 13:30:45;;;;;;;4.70;2.05;;;28.60;75.90;;;;;;5089832;28;20523;-70
2022/05/23 13:33:22;;;;;;;8.50;2.75;;;27.90;77.20;;;;;;5089251;28;20111;-70
2022/05/23 13:35:55;;;;;;;8.02;2.33;;;27.70;79.00;;;;;;5094322;28;20036;-70
2022/05/23 13:38:25;;;;;;;7.03;2.83;;;27.40;79.10;;;;;;5085408;28;20012;-70
2022/05/23 13:40:53;;;;;;;4.72;2.70;;;27.00;79.20;;;;;;5087723;28;20561;-71
2022/05/23 13:43:23;;;;;;;5.35;2.47;;;27.00;80.70;;;;;;5070711;28;20400;-70
2022/05/23 13:46:15;;;;;;;8.98;3.10;;;26.90;80.70;;;;;;5089584;28;20482;-70
2022/05/23 13:48:46;;;;;;;8.40;2.92;;;26.80;82.00;;;;;;5087722;28;20024;-70
2022/05/23 13:51:18;;;;;;;4.13;2.80;;;27.00;82.00;;;;;;5088415;28;20570;-71
2022/05/23 13:53:50;;;;;;;7.68;2.92;;;26.90;82.30;;;;;;5085638;28;20036;-70
2022/05/23 13:56:16;;;;;;;5.80;2.72;;;26.70;81.90;;;;;;5083633;28;20572;-71
2022/05/23 13:58:50;;;;;;;4.35;2.97;;;26.60;82.70;;;;;;5086019;28;20036;-70
2022/05/23 14:01:22;;;;;;;7.15;2.95;;;26.50;83.20;;;;;;5086434;28;20135;-70
2022/05/23 14:03:58;;;;;;;8.00;3.00;;;26.40;83.10;;;;;;5085745;28;20025;-70
2022/05/23 14:06:31;;;;;;;8.90;3.28;;;26.50;85.00;;;;;;5077658;28;20025;-71
2022/05/23 14:09:01;;;;;;;6.70;3.20;;;26.40;84.80;;;;;;5074292;28;20043;-71
2022/05/23 14:11:36;;;;;;;4.78;3.03;;;26.40;86.00;;;;;;5073996;28;20037;-71
2022/05/23 14:14:14;;;;;;;8.02;3.22;;;26.20;86.60;;;;;;5071641;28;20063;-70
2022/05/23 14:16:48;;;;;;;7.97;3.25;;;26.10;88.20;;;;;;5073852;28;20035;-71
2022/05/23 14:19:25;;;;;;;6.80;3.10;;;25.90;88.80;;;;;;5073380;28;20024;-70
2022/05/23 14:22:13;;;;;;;4.20;2.90;;;26.00;89.50;;;;;;5071336;28;20073;-70
2022/05/23 14:24:42;;;;;;;6.75;3.90;;;26.10;90.10;;;;;;5062416;28;20171;-70
2022/05/23 14:27:22;;;;;;;6.88;3.50;;;26.10;90.60;;;;;;5066931;28;20052;-70
2022/05/23 14:30:15;;;;;;;8.75;3.28;;;26.10;90.00;;;;;;5071980;28;20407;-70
2022/05/23 14:32:42;;;;;;;7.40;3.40;;;26.10;90.70;;;;;;5072748;28;20032;-70